sensor_id;sensor_type;location;lat;lon;timestamp;P1;durP1;ratioP1;P2;durP2;ratioP2
59872;SDS011;50750;51.636;4.948;2023-09-30T00:01:21;5.70;;;2.20;;
59872;SDS011;50750;51.636;4.948;2023-09-30T00:03:48;4.00;;;1.90;;
59872;SDS011;50750;51.636;4.948;2023-09-30T00:06:13;4.00;;;2.30;;
59872;SDS011;50750;51.636;4.948;2023-09-30T00:08:39;3.90;;;2.00;;
59872;SDS011;50750;51.636;4.948;2023-09-30T00:11:07;4.70;;;1.90;;
59872;SDS011;50750;51.636;4.948;2023-09-30T00:13:33;4.80;;;2.20;;
59872;SDS011;50750;51.636;4.948;2023-09-30T00:15:58;3.80;;;1.90;;
59872;SDS011;50750;51.636;4.948;2023-09-30T00:18:24;4.70;;;2.10;;
59872;SDS011;50750;51.636;4.948;2023-09-30T00:20:50;4.10;;;1.90;;
59872;SDS011;50750;51.636;4.948;2023-09-30T00:23:16;3.90;;;2.00;;
59872;SDS011;50750;51.636;4.948;2023-09-30T00:25:42;4.20;;;2.00;;
59872;SDS011;50750;51.636;4.948;2023-09-30T00:28:07;4.50;;;2.10;;
59872;SDS011;50750;51.636;4.948;2023-09-30T00:30:33;4.70;;;2.00;;
59872;SDS011;50750;51.636;4.948;2023-09-30T00:32:59;4.40;;;2.00;;
59872;SDS011;50750;51.636;4.948;2023-09-30T00:35:25;4.50;;;2.20;;
59872;SDS011;50750;51.636;4.948;2023-09-30T00:37:51;4.10;;;2.10;;
59872;SDS011;50750;51.636;4.948;2023-09-30T00:40:17;4.30;;;2.20;;
59872;SDS011;50750;51.636;4.948;2023-09-30T00:42:43;4.20;;;2.00;;
59872;SDS011;50750;51.636;4.948;2023-09-30T00:45:08;5.00;;;2.20;;
59872;SDS011;50750;51.636;4.948;2023-09-30T00:47:35;4.70;;;1.90;;
59872;SDS011;50750;51.636;4.948;2023-09-30T00:50:02;4.30;;;2.10;;
59872;SDS011;50750;51.636;4.948;2023-09-30T00:52:31;5.10;;;2.10;;
59872;SDS011;50750;51.636;4.948;2023-09-30T00:54:58;4.90;;;2.10;;
59872;SDS011;50750;51.636;4.948;2023-09-30T00:57:24;3.40;;;1.90;;
59872;SDS011;50750;51.636;4.948;2023-09-30T00:59:51;3.90;;;1.80;;
59872;SDS011;50750;51.636;4.948;2023-09-30T01:02:17;4.50;;;2.00;;
59872;SDS011;50750;51.636;4.948;2023-09-30T01:04:44;4.10;;;1.90;;
59872;SDS011;50750;51.636;4.948;2023-09-30T01:07:11;3.90;;;2.00;;
59872;SDS011;50750;51.636;4.948;2023-09-30T01:09:37;3.50;;;1.90;;
59872;SDS011;50750;51.636;4.948;2023-09-30T01:12:04;3.50;;;1.90;;
59872;SDS011;50750;51.636;4.948;2023-09-30T01:14:31;3.60;;;2.00;;
59872;SDS011;50750;51.636;4.948;2023-09-30T01:17:04;3.60;;;2.00;;
59872;SDS011;50750;51.636;4.948;2023-09-30T01:19:34;3.90;;;2.00;;
59872;SDS011;50750;51.636;4.948;2023-09-30T01:22:00;3.90;;;2.10;;
59872;SDS011;50750;51.636;4.948;2023-09-30T01:24:28;4.50;;;2.10;;
59872;SDS011;50750;51.636;4.948;2023-09-30T01:26:55;3.70;;;1.90;;
59872;SDS011;50750;51.636;4.948;2023-09-30T01:29:22;4.60;;;2.10;;
59872;SDS011;50750;51.636;4.948;2023-09-30T01:31:48;3.50;;;1.80;;
59872;SDS011;50750;51.636;4.948;2023-09-30T01:34:15;3.80;;;1.90;;
59872;SDS011;50750;51.636;4.948;2023-09-30T01:36:42;3.60;;;1.70;;
59872;SDS011;50750;51.636;4.948;2023-09-30T01:39:11;4.60;;;2.30;;
59872;SDS011;50750;51.636;4.948;2023-09-30T01:41:37;3.70;;;2.00;;
59872;SDS011;50750;51.636;4.948;2023-09-30T01:44:04;3.80;;;1.90;;
59872;SDS011;50750;51.636;4.948;2023-09-30T01:46:30;4.40;;;2.00;;
59872;SDS011;50750;51.636;4.948;2023-09-30T01:48:56;4.00;;;1.90;;
59872;SDS011;50750;51.636;4.948;2023-09-30T01:51:22;3.90;;;2.10;;
59872;SDS011;50750;51.636;4.948;2023-09-30T01:53:47;4.00;;;2.00;;
59872;SDS011;50750;51.636;4.948;2023-09-30T01:56:13;4.30;;;1.90;;
59872;SDS011;50750;51.636;4.948;2023-09-30T01:58:39;4.30;;;2.40;;
59872;SDS011;50750;51.636;4.948;2023-09-30T02:01:05;3.90;;;1.90;;
59872;SDS011;50750;51.636;4.948;2023-09-30T02:03:31;3.70;;;1.90;;
59872;SDS011;50750;51.636;4.948;2023-09-30T02:05:58;4.00;;;1.80;;
59872;SDS011;50750;51.636;4.948;2023-09-30T02:08:24;4.00;;;1.80;;
59872;SDS011;50750;51.636;4.948;2023-09-30T02:10:50;3.20;;;1.80;;
59872;SDS011;50750;51.636;4.948;2023-09-30T02:13:19;4.10;;;1.70;;
59872;SDS011;50750;51.636;4.948;2023-09-30T02:15:45;4.90;;;2.10;;
59872;SDS011;50750;51.636;4.948;2023-09-30T02:18:11;3.70;;;1.90;;
59872;SDS011;50750;51.636;4.948;2023-09-30T02:20:38;4.10;;;2.20;;
59872;SDS011;50750;51.636;4.948;2023-09-30T02:23:08;3.80;;;1.90;;
59872;SDS011;50750;51.636;4.948;2023-09-30T02:25:38;3.90;;;1.90;;
59872;SDS011;50750;51.636;4.948;2023-09-30T02:28:06;4.40;;;2.10;;
59872;SDS011;50750;51.636;4.948;2023-09-30T02:30:32;3.70;;;1.90;;
59872;SDS011;50750;51.636;4.948;2023-09-30T02:32:58;3.70;;;2.00;;
59872;SDS011;50750;51.636;4.948;2023-09-30T02:35:25;3.60;;;2.10;;
59872;SDS011;50750;51.636;4.948;2023-09-30T02:37:51;3.30;;;1.90;;
59872;SDS011;50750;51.636;4.948;2023-09-30T02:40:18;4.40;;;2.10;;
59872;SDS011;50750;51.636;4.948;2023-09-30T02:42:45;2.90;;;1.70;;
59872;SDS011;50750;51.636;4.948;2023-09-30T02:45:12;3.20;;;1.70;;
59872;SDS011;50750;51.636;4.948;2023-09-30T02:47:39;4.90;;;1.70;;
59872;SDS011;50750;51.636;4.948;2023-09-30T02:50:05;3.60;;;1.90;;
59872;SDS011;50750;51.636;4.948;2023-09-30T02:52:34;3.70;;;1.90;;
59872;SDS011;50750;51.636;4.948;2023-09-30T02:55:00;3.30;;;1.70;;
59872;SDS011;50750;51.636;4.948;2023-09-30T02:57:26;3.70;;;1.90;;
59872;SDS011;50750;51.636;4.948;2023-09-30T03:02:22;2.90;;;1.60;;
59872;SDS011;50750;51.636;4.948;2023-09-30T03:04:48;3.10;;;1.70;;
59872;SDS011;50750;51.636;4.948;2023-09-30T03:07:15;4.90;;;2.00;;
59872;SDS011;50750;51.636;4.948;2023-09-30T03:09:42;3.90;;;1.90;;
59872;SDS011;50750;51.636;4.948;2023-09-30T03:12:09;3.80;;;2.00;;
59872;SDS011;50750;51.636;4.948;2023-09-30T03:14:35;3.70;;;2.10;;
59872;SDS011;50750;51.636;4.948;2023-09-30T03:17:00;3.30;;;1.80;;
59872;SDS011;50750;51.636;4.948;2023-09-30T03:19:26;4.30;;;2.00;;
59872;SDS011;50750;51.636;4.948;2023-09-30T03:21:52;4.50;;;1.90;;
59872;SDS011;50750;51.636;4.948;2023-09-30T03:24:18;3.50;;;2.20;;
59872;SDS011;50750;51.636;4.948;2023-09-30T03:26:44;3.40;;;2.10;;
59872;SDS011;50750;51.636;4.948;2023-09-30T03:29:09;3.30;;;1.80;;
59872;SDS011;50750;51.636;4.948;2023-09-30T03:31:35;4.00;;;1.90;;
59872;SDS011;50750;51.636;4.948;2023-09-30T03:34:02;3.80;;;2.10;;
59872;SDS011;50750;51.636;4.948;2023-09-30T03:36:29;3.70;;;2.00;;
59872;SDS011;50750;51.636;4.948;2023-09-30T03:38:55;3.60;;;1.70;;
59872;SDS011;50750;51.636;4.948;2023-09-30T03:41:22;3.20;;;2.00;;
59872;SDS011;50750;51.636;4.948;2023-09-30T03:43:48;3.50;;;2.10;;
59872;SDS011;50750;51.636;4.948;2023-09-30T03:46:15;5.30;;;1.90;;
59872;SDS011;50750;51.636;4.948;2023-09-30T03:48:41;3.90;;;2.20;;
59872;SDS011;50750;51.636;4.948;2023-09-30T03:51:13;3.90;;;2.40;;
59872;SDS011;50750;51.636;4.948;2023-09-30T03:53:43;3.60;;;2.00;;
59872;SDS011;50750;51.636;4.948;2023-09-30T03:56:10;3.30;;;1.80;;
59872;SDS011;50750;51.636;4.948;2023-09-30T03:58:38;4.70;;;1.90;;
59872;SDS011;50750;51.636;4.948;2023-09-30T04:01:09;3.70;;;1.90;;
59872;SDS011;50750;51.636;4.948;2023-09-30T04:03:42;4.00;;;2.10;;
59872;SDS011;50750;51.636;4.948;2023-09-30T04:06:09;6.10;;;2.20;;
59872;SDS011;50750;51.636;4.948;2023-09-30T04:08:35;4.60;;;2.30;;
59872;SDS011;50750;51.636;4.948;2023-09-30T04:11:01;3.90;;;2.20;;
59872;SDS011;50750;51.636;4.948;2023-09-30T04:13:28;4.00;;;2.20;;
59872;SDS011;50750;51.636;4.948;2023-09-30T04:15:59;3.60;;;2.00;;
59872;SDS011;50750;51.636;4.948;2023-09-30T04:18:25;4.30;;;2.10;;
59872;SDS011;50750;51.636;4.948;2023-09-30T04:20:52;4.60;;;2.00;;
59872;SDS011;50750;51.636;4.948;2023-09-30T04:23:18;3.20;;;1.80;;
59872;SDS011;50750;51.636;4.948;2023-09-30T04:25:46;4.00;;;2.00;;
59872;SDS011;50750;51.636;4.948;2023-09-30T04:28:12;3.70;;;2.00;;
59872;SDS011;50750;51.636;4.948;2023-09-30T04:30:39;4.20;;;2.20;;
59872;SDS011;50750;51.636;4.948;2023-09-30T04:33:06;4.20;;;2.00;;
59872;SDS011;50750;51.636;4.948;2023-09-30T04:35:33;3.20;;;2.00;;
59872;SDS011;50750;51.636;4.948;2023-09-30T04:38:01;4.20;;;2.00;;
59872;SDS011;50750;51.636;4.948;2023-09-30T04:40:27;4.00;;;2.10;;
59872;SDS011;50750;51.636;4.948;2023-09-30T04:42:53;3.20;;;2.00;;
59872;SDS011;50750;51.636;4.948;2023-09-30T04:45:24;4.20;;;2.30;;
59872;SDS011;50750;51.636;4.948;2023-09-30T04:47:52;3.50;;;2.10;;
59872;SDS011;50750;51.636;4.948;2023-09-30T04:50:18;4.40;;;2.00;;
59872;SDS011;50750;51.636;4.948;2023-09-30T04:52:47;4.10;;;1.80;;
59872;SDS011;50750;51.636;4.948;2023-09-30T04:55:14;3.30;;;2.00;;
59872;SDS011;50750;51.636;4.948;2023-09-30T04:57:44;3.80;;;1.90;;
59872;SDS011;50750;51.636;4.948;2023-09-30T05:00:12;3.10;;;1.70;;
59872;SDS011;50750;51.636;4.948;2023-09-30T05:02:45;3.40;;;1.90;;
59872;SDS011;50750;51.636;4.948;2023-09-30T05:05:11;3.70;;;1.70;;
59872;SDS011;50750;51.636;4.948;2023-09-30T05:07:37;3.30;;;1.80;;
59872;SDS011;50750;51.636;4.948;2023-09-30T05:10:03;4.00;;;2.00;;
59872;SDS011;50750;51.636;4.948;2023-09-30T05:12:36;3.80;;;1.90;;
59872;SDS011;50750;51.636;4.948;2023-09-30T05:15:03;4.20;;;2.20;;
59872;SDS011;50750;51.636;4.948;2023-09-30T05:17:31;3.40;;;2.10;;
59872;SDS011;50750;51.636;4.948;2023-09-30T05:19:57;3.70;;;2.00;;
59872;SDS011;50750;51.636;4.948;2023-09-30T05:22:23;3.30;;;1.80;;
59872;SDS011;50750;51.636;4.948;2023-09-30T05:24:50;2.80;;;1.70;;
59872;SDS011;50750;51.636;4.948;2023-09-30T05:27:18;4.20;;;1.90;;
59872;SDS011;50750;51.636;4.948;2023-09-30T05:29:44;4.40;;;2.00;;
59872;SDS011;50750;51.636;4.948;2023-09-30T05:32:10;3.60;;;1.70;;
59872;SDS011;50750;51.636;4.948;2023-09-30T05:34:37;5.70;;;2.00;;
59872;SDS011;50750;51.636;4.948;2023-09-30T05:37:04;3.40;;;1.80;;
59872;SDS011;50750;51.636;4.948;2023-09-30T05:39:30;3.60;;;2.10;;
59872;SDS011;50750;51.636;4.948;2023-09-30T05:42:00;5.40;;;1.90;;
59872;SDS011;50750;51.636;4.948;2023-09-30T05:46:53;3.80;;;1.80;;
59872;SDS011;50750;51.636;4.948;2023-09-30T05:49:20;4.10;;;1.90;;
59872;SDS011;50750;51.636;4.948;2023-09-30T05:51:46;5.00;;;2.20;;
59872;SDS011;50750;51.636;4.948;2023-09-30T05:54:12;3.50;;;1.80;;
59872;SDS011;50750;51.636;4.948;2023-09-30T05:56:38;3.80;;;2.10;;
59872;SDS011;50750;51.636;4.948;2023-09-30T05:59:05;3.70;;;1.90;;
59872;SDS011;50750;51.636;4.948;2023-09-30T06:01:32;3.60;;;2.10;;
59872;SDS011;50750;51.636;4.948;2023-09-30T06:03:58;5.40;;;2.00;;
59872;SDS011;50750;51.636;4.948;2023-09-30T06:06:26;2.80;;;1.60;;
59872;SDS011;50750;51.636;4.948;2023-09-30T06:11:24;3.70;;;2.20;;
59872;SDS011;50750;51.636;4.948;2023-09-30T06:13:56;3.40;;;1.80;;
59872;SDS011;50750;51.636;4.948;2023-09-30T06:16:27;3.80;;;1.90;;
59872;SDS011;50750;51.636;4.948;2023-09-30T06:18:53;3.50;;;1.80;;
59872;SDS011;50750;51.636;4.948;2023-09-30T06:21:24;3.00;;;1.70;;
59872;SDS011;50750;51.636;4.948;2023-09-30T06:23:54;3.70;;;2.00;;
59872;SDS011;50750;51.636;4.948;2023-09-30T06:26:21;3.70;;;1.80;;
59872;SDS011;50750;51.636;4.948;2023-09-30T06:28:47;4.20;;;1.90;;
59872;SDS011;50750;51.636;4.948;2023-09-30T06:31:14;3.00;;;1.80;;
59872;SDS011;50750;51.636;4.948;2023-09-30T06:33:40;4.10;;;2.20;;
59872;SDS011;50750;51.636;4.948;2023-09-30T06:36:08;3.20;;;1.90;;
59872;SDS011;50750;51.636;4.948;2023-09-30T06:38:34;2.60;;;1.60;;
59872;SDS011;50750;51.636;4.948;2023-09-30T06:41:02;3.80;;;1.70;;
59872;SDS011;50750;51.636;4.948;2023-09-30T06:43:28;3.90;;;1.80;;
59872;SDS011;50750;51.636;4.948;2023-09-30T06:45:55;3.20;;;1.90;;
59872;SDS011;50750;51.636;4.948;2023-09-30T06:48:20;4.00;;;2.10;;
59872;SDS011;50750;51.636;4.948;2023-09-30T06:50:48;4.20;;;1.90;;
59872;SDS011;50750;51.636;4.948;2023-09-30T06:53:18;2.80;;;1.60;;
59872;SDS011;50750;51.636;4.948;2023-09-30T06:58:11;4.00;;;2.00;;
59872;SDS011;50750;51.636;4.948;2023-09-30T07:00:37;3.60;;;1.90;;
59872;SDS011;50750;51.636;4.948;2023-09-30T07:03:04;3.70;;;1.90;;
59872;SDS011;50750;51.636;4.948;2023-09-30T07:05:30;3.50;;;2.00;;
59872;SDS011;50750;51.636;4.948;2023-09-30T07:07:56;3.50;;;2.00;;
59872;SDS011;50750;51.636;4.948;2023-09-30T07:10:22;4.10;;;1.80;;
59872;SDS011;50750;51.636;4.948;2023-09-30T07:12:48;3.50;;;2.00;;
59872;SDS011;50750;51.636;4.948;2023-09-30T07:15:13;3.70;;;1.90;;
59872;SDS011;50750;51.636;4.948;2023-09-30T07:17:40;4.50;;;2.10;;
59872;SDS011;50750;51.636;4.948;2023-09-30T07:20:06;3.40;;;1.90;;
59872;SDS011;50750;51.636;4.948;2023-09-30T07:22:33;3.10;;;1.90;;
59872;SDS011;50750;51.636;4.948;2023-09-30T07:24:59;13.90;;;6.80;;
59872;SDS011;50750;51.636;4.948;2023-09-30T07:27:25;13.50;;;6.90;;
59872;SDS011;50750;51.636;4.948;2023-09-30T07:29:51;10.60;;;6.10;;
59872;SDS011;50750;51.636;4.948;2023-09-30T07:32:17;10.90;;;5.40;;
59872;SDS011;50750;51.636;4.948;2023-09-30T07:34:43;9.60;;;5.70;;
59872;SDS011;50750;51.636;4.948;2023-09-30T07:37:09;9.40;;;4.90;;
59872;SDS011;50750;51.636;4.948;2023-09-30T07:39:35;10.40;;;5.10;;
59872;SDS011;50750;51.636;4.948;2023-09-30T07:42:01;8.90;;;4.80;;
59872;SDS011;50750;51.636;4.948;2023-09-30T07:44:27;7.90;;;4.20;;
59872;SDS011;50750;51.636;4.948;2023-09-30T07:46:53;8.20;;;4.10;;
59872;SDS011;50750;51.636;4.948;2023-09-30T07:49:19;6.70;;;4.00;;
59872;SDS011;50750;51.636;4.948;2023-09-30T07:51:45;6.90;;;4.20;;
59872;SDS011;50750;51.636;4.948;2023-09-30T07:54:13;6.80;;;4.20;;
59872;SDS011;50750;51.636;4.948;2023-09-30T07:56:39;7.20;;;3.80;;
59872;SDS011;50750;51.636;4.948;2023-09-30T07:59:05;7.50;;;4.10;;
59872;SDS011;50750;51.636;4.948;2023-09-30T08:01:31;7.50;;;4.10;;
59872;SDS011;50750;51.636;4.948;2023-09-30T08:03:57;6.80;;;3.70;;
59872;SDS011;50750;51.636;4.948;2023-09-30T08:06:23;6.70;;;3.50;;
59872;SDS011;50750;51.636;4.948;2023-09-30T08:08:49;6.50;;;3.60;;
59872;SDS011;50750;51.636;4.948;2023-09-30T08:11:15;6.70;;;3.80;;
59872;SDS011;50750;51.636;4.948;2023-09-30T08:13:43;7.20;;;4.20;;
59872;SDS011;50750;51.636;4.948;2023-09-30T08:16:09;5.70;;;3.70;;
59872;SDS011;50750;51.636;4.948;2023-09-30T08:18:35;7.20;;;3.60;;
59872;SDS011;50750;51.636;4.948;2023-09-30T08:21:00;6.60;;;3.80;;
59872;SDS011;50750;51.636;4.948;2023-09-30T08:23:26;6.80;;;3.70;;
59872;SDS011;50750;51.636;4.948;2023-09-30T08:25:52;7.20;;;4.10;;
59872;SDS011;50750;51.636;4.948;2023-09-30T08:28:19;7.20;;;4.40;;
59872;SDS011;50750;51.636;4.948;2023-09-30T08:30:44;7.10;;;4.40;;
59872;SDS011;50750;51.636;4.948;2023-09-30T08:33:11;7.50;;;4.40;;
59872;SDS011;50750;51.636;4.948;2023-09-30T08:35:37;7.20;;;4.90;;
59872;SDS011;50750;51.636;4.948;2023-09-30T08:38:03;7.60;;;4.20;;
59872;SDS011;50750;51.636;4.948;2023-09-30T08:40:30;8.60;;;4.50;;
59872;SDS011;50750;51.636;4.948;2023-09-30T08:42:56;8.00;;;4.70;;
59872;SDS011;50750;51.636;4.948;2023-09-30T08:45:22;8.50;;;4.70;;
59872;SDS011;50750;51.636;4.948;2023-09-30T08:47:48;8.00;;;4.50;;
59872;SDS011;50750;51.636;4.948;2023-09-30T08:50:16;7.60;;;4.60;;
59872;SDS011;50750;51.636;4.948;2023-09-30T08:52:43;7.80;;;4.70;;
59872;SDS011;50750;51.636;4.948;2023-09-30T08:55:10;7.70;;;4.70;;
59872;SDS011;50750;51.636;4.948;2023-09-30T08:57:38;9.10;;;5.10;;
59872;SDS011;50750;51.636;4.948;2023-09-30T09:00:07;8.50;;;5.20;;
59872;SDS011;50750;51.636;4.948;2023-09-30T09:02:38;10.20;;;5.00;;
59872;SDS011;50750;51.636;4.948;2023-09-30T09:05:05;7.80;;;4.80;;
59872;SDS011;50750;51.636;4.948;2023-09-30T09:07:32;8.20;;;4.70;;
59872;SDS011;50750;51.636;4.948;2023-09-30T09:12:33;7.90;;;4.90;;
59872;SDS011;50750;51.636;4.948;2023-09-30T09:15:00;9.80;;;5.40;;
59872;SDS011;50750;51.636;4.948;2023-09-30T09:17:39;9.60;;;5.80;;
59872;SDS011;50750;51.636;4.948;2023-09-30T09:20:10;8.40;;;5.00;;
59872;SDS011;50750;51.636;4.948;2023-09-30T09:22:43;8.10;;;5.60;;
59872;SDS011;50750;51.636;4.948;2023-09-30T09:25:10;9.50;;;5.80;;
59872;SDS011;50750;51.636;4.948;2023-09-30T09:27:36;8.80;;;5.30;;
59872;SDS011;50750;51.636;4.948;2023-09-30T09:35:27;8.20;;;5.50;;
59872;SDS011;50750;51.636;4.948;2023-09-30T09:40:26;9.80;;;6.00;;
59872;SDS011;50750;51.636;4.948;2023-09-30T09:42:54;9.60;;;6.40;;
59872;SDS011;50750;51.636;4.948;2023-09-30T09:45:24;9.90;;;6.40;;
59872;SDS011;50750;51.636;4.948;2023-09-30T09:47:52;8.90;;;6.10;;
59872;SDS011;50750;51.636;4.948;2023-09-30T09:50:19;11.10;;;6.60;;
59872;SDS011;50750;51.636;4.948;2023-09-30T09:52:47;10.90;;;7.10;;
59872;SDS011;50750;51.636;4.948;2023-09-30T09:55:26;10.60;;;6.60;;
59872;SDS011;50750;51.636;4.948;2023-09-30T09:57:53;11.00;;;6.90;;
59872;SDS011;50750;51.636;4.948;2023-09-30T10:00:24;11.70;;;7.30;;
59872;SDS011;50750;51.636;4.948;2023-09-30T10:02:51;11.90;;;7.00;;
59872;SDS011;50750;51.636;4.948;2023-09-30T10:05:18;11.10;;;6.60;;
59872;SDS011;50750;51.636;4.948;2023-09-30T10:10:23;9.40;;;6.20;;
59872;SDS011;50750;51.636;4.948;2023-09-30T10:12:50;11.20;;;7.20;;
59872;SDS011;50750;51.636;4.948;2023-09-30T10:17:58;12.00;;;7.50;;
59872;SDS011;50750;51.636;4.948;2023-09-30T10:20:29;12.40;;;8.20;;
59872;SDS011;50750;51.636;4.948;2023-09-30T10:25:42;13.20;;;7.70;;
59872;SDS011;50750;51.636;4.948;2023-09-30T10:28:31;11.70;;;7.90;;
59872;SDS011;50750;51.636;4.948;2023-09-30T10:31:08;13.70;;;7.90;;
59872;SDS011;50750;51.636;4.948;2023-09-30T10:33:34;14.70;;;8.40;;
59872;SDS011;50750;51.636;4.948;2023-09-30T10:36:00;13.50;;;8.40;;
59872;SDS011;50750;51.636;4.948;2023-09-30T10:40:54;15.70;;;8.10;;
59872;SDS011;50750;51.636;4.948;2023-09-30T10:43:29;12.20;;;8.60;;
59872;SDS011;50750;51.636;4.948;2023-09-30T10:45:58;11.00;;;8.20;;
59872;SDS011;50750;51.636;4.948;2023-09-30T10:50:57;13.80;;;8.20;;
59872;SDS011;50750;51.636;4.948;2023-09-30T10:53:26;12.90;;;8.40;;
59872;SDS011;50750;51.636;4.948;2023-09-30T10:55:57;12.20;;;8.00;;
59872;SDS011;50750;51.636;4.948;2023-09-30T11:01:18;12.60;;;8.00;;
59872;SDS011;50750;51.636;4.948;2023-09-30T11:03:45;10.80;;;7.20;;
59872;SDS011;50750;51.636;4.948;2023-09-30T11:06:15;12.40;;;8.20;;
59872;SDS011;50750;51.636;4.948;2023-09-30T11:08:55;12.30;;;7.60;;
59872;SDS011;50750;51.636;4.948;2023-09-30T11:11:34;12.10;;;7.70;;
59872;SDS011;50750;51.636;4.948;2023-09-30T11:16:45;11.40;;;7.50;;
59872;SDS011;50750;51.636;4.948;2023-09-30T11:19:12;11.20;;;7.70;;
59872;SDS011;50750;51.636;4.948;2023-09-30T11:21:39;11.00;;;7.00;;
59872;SDS011;50750;51.636;4.948;2023-09-30T11:24:06;11.50;;;7.60;;
59872;SDS011;50750;51.636;4.948;2023-09-30T11:26:33;11.00;;;7.40;;
59872;SDS011;50750;51.636;4.948;2023-09-30T11:29:06;11.70;;;7.70;;
59872;SDS011;50750;51.636;4.948;2023-09-30T11:31:43;10.80;;;7.60;;
59872;SDS011;50750;51.636;4.948;2023-09-30T11:34:16;10.70;;;7.40;;
59872;SDS011;50750;51.636;4.948;2023-09-30T11:39:22;11.40;;;6.50;;
59872;SDS011;50750;51.636;4.948;2023-09-30T11:41:52;9.60;;;7.20;;
59872;SDS011;50750;51.636;4.948;2023-09-30T11:44:20;11.70;;;7.00;;
59872;SDS011;50750;51.636;4.948;2023-09-30T11:52:08;11.20;;;7.00;;
59872;SDS011;50750;51.636;4.948;2023-09-30T11:54:40;10.80;;;6.90;;
59872;SDS011;50750;51.636;4.948;2023-09-30T11:57:09;9.70;;;6.70;;
59872;SDS011;50750;51.636;4.948;2023-09-30T11:59:37;9.80;;;6.40;;
59872;SDS011;50750;51.636;4.948;2023-09-30T12:02:04;9.30;;;6.50;;
59872;SDS011;50750;51.636;4.948;2023-09-30T12:04:34;9.40;;;6.50;;
59872;SDS011;50750;51.636;4.948;2023-09-30T12:07:01;8.90;;;6.30;;
59872;SDS011;50750;51.636;4.948;2023-09-30T12:09:27;8.50;;;6.00;;
59872;SDS011;50750;51.636;4.948;2023-09-30T12:11:54;9.50;;;5.70;;
59872;SDS011;50750;51.636;4.948;2023-09-30T12:14:21;10.10;;;6.50;;
59872;SDS011;50750;51.636;4.948;2023-09-30T12:16:47;9.50;;;6.20;;
59872;SDS011;50750;51.636;4.948;2023-09-30T12:19:13;9.10;;;6.40;;
59872;SDS011;50750;51.636;4.948;2023-09-30T12:21:41;9.70;;;6.10;;
59872;SDS011;50750;51.636;4.948;2023-09-30T12:24:08;8.40;;;5.80;;
59872;SDS011;50750;51.636;4.948;2023-09-30T12:26:35;7.40;;;5.40;;
59872;SDS011;50750;51.636;4.948;2023-09-30T12:29:03;8.80;;;5.80;;
59872;SDS011;50750;51.636;4.948;2023-09-30T12:31:30;8.20;;;5.40;;
59872;SDS011;50750;51.636;4.948;2023-09-30T12:33:55;9.60;;;6.00;;
59872;SDS011;50750;51.636;4.948;2023-09-30T12:36:21;7.70;;;5.10;;
59872;SDS011;50750;51.636;4.948;2023-09-30T12:38:47;9.10;;;5.20;;
59872;SDS011;50750;51.636;4.948;2023-09-30T12:41:13;8.20;;;4.90;;
59872;SDS011;50750;51.636;4.948;2023-09-30T12:43:40;7.80;;;5.30;;
59872;SDS011;50750;51.636;4.948;2023-09-30T12:46:08;8.50;;;5.00;;
59872;SDS011;50750;51.636;4.948;2023-09-30T12:48:34;9.20;;;4.90;;
59872;SDS011;50750;51.636;4.948;2023-09-30T12:51:00;8.80;;;4.80;;
59872;SDS011;50750;51.636;4.948;2023-09-30T12:53:29;7.70;;;4.80;;
59872;SDS011;50750;51.636;4.948;2023-09-30T12:55:55;8.20;;;4.90;;
59872;SDS011;50750;51.636;4.948;2023-09-30T12:58:21;7.00;;;4.60;;
59872;SDS011;50750;51.636;4.948;2023-09-30T13:00:47;6.50;;;4.10;;
59872;SDS011;50750;51.636;4.948;2023-09-30T13:03:13;6.90;;;4.80;;
59872;SDS011;50750;51.636;4.948;2023-09-30T13:05:41;7.00;;;4.70;;
59872;SDS011;50750;51.636;4.948;2023-09-30T13:08:07;7.10;;;4.30;;
59872;SDS011;50750;51.636;4.948;2023-09-30T13:10:32;7.10;;;4.60;;
59872;SDS011;50750;51.636;4.948;2023-09-30T13:12:58;7.10;;;4.50;;
59872;SDS011;50750;51.636;4.948;2023-09-30T13:15:24;6.20;;;4.50;;
59872;SDS011;50750;51.636;4.948;2023-09-30T13:17:51;7.30;;;4.70;;
59872;SDS011;50750;51.636;4.948;2023-09-30T13:20:17;6.10;;;4.20;;
59872;SDS011;50750;51.636;4.948;2023-09-30T13:22:43;7.20;;;4.30;;
59872;SDS011;50750;51.636;4.948;2023-09-30T13:25:09;6.90;;;4.70;;
59872;SDS011;50750;51.636;4.948;2023-09-30T13:27:38;5.90;;;4.10;;
59872;SDS011;50750;51.636;4.948;2023-09-30T13:30:06;6.90;;;4.00;;
59872;SDS011;50750;51.636;4.948;2023-09-30T13:32:33;6.70;;;4.10;;
59872;SDS011;50750;51.636;4.948;2023-09-30T13:35:06;7.00;;;4.20;;
59872;SDS011;50750;51.636;4.948;2023-09-30T13:44:51;6.10;;;3.30;;
59872;SDS011;50750;51.636;4.948;2023-09-30T13:47:17;7.60;;;3.80;;
59872;SDS011;50750;51.636;4.948;2023-09-30T13:49:42;6.90;;;3.40;;
59872;SDS011;50750;51.636;4.948;2023-09-30T13:52:08;8.70;;;3.80;;
59872;SDS011;50750;51.636;4.948;2023-09-30T13:54:34;7.30;;;3.40;;
59872;SDS011;50750;51.636;4.948;2023-09-30T13:57:00;8.00;;;3.80;;
59872;SDS011;50750;51.636;4.948;2023-09-30T13:59:25;6.10;;;3.60;;
59872;SDS011;50750;51.636;4.948;2023-09-30T14:01:53;6.50;;;3.50;;
59872;SDS011;50750;51.636;4.948;2023-09-30T14:04:19;6.60;;;3.60;;
59872;SDS011;50750;51.636;4.948;2023-09-30T14:06:45;7.50;;;3.80;;
59872;SDS011;50750;51.636;4.948;2023-09-30T14:09:13;5.70;;;3.30;;
59872;SDS011;50750;51.636;4.948;2023-09-30T14:11:41;7.00;;;3.50;;
59872;SDS011;50750;51.636;4.948;2023-09-30T14:14:07;6.80;;;3.40;;
59872;SDS011;50750;51.636;4.948;2023-09-30T14:16:38;7.70;;;3.50;;
59872;SDS011;50750;51.636;4.948;2023-09-30T14:19:03;6.60;;;3.10;;
59872;SDS011;50750;51.636;4.948;2023-09-30T14:21:29;5.70;;;3.50;;
59872;SDS011;50750;51.636;4.948;2023-09-30T14:23:57;7.10;;;3.20;;
59872;SDS011;50750;51.636;4.948;2023-09-30T14:26:23;6.60;;;3.20;;
59872;SDS011;50750;51.636;4.948;2023-09-30T14:28:50;6.40;;;3.10;;
59872;SDS011;50750;51.636;4.948;2023-09-30T14:31:16;7.20;;;3.20;;
59872;SDS011;50750;51.636;4.948;2023-09-30T14:33:43;7.00;;;3.30;;
59872;SDS011;50750;51.636;4.948;2023-09-30T14:36:08;7.60;;;3.50;;
59872;SDS011;50750;51.636;4.948;2023-09-30T14:38:35;6.00;;;3.30;;
59872;SDS011;50750;51.636;4.948;2023-09-30T14:41:05;6.30;;;3.50;;
59872;SDS011;50750;51.636;4.948;2023-09-30T14:43:32;5.60;;;3.30;;
59872;SDS011;50750;51.636;4.948;2023-09-30T14:46:00;5.80;;;3.20;;
59872;SDS011;50750;51.636;4.948;2023-09-30T14:50:53;7.40;;;3.40;;
59872;SDS011;50750;51.636;4.948;2023-09-30T14:53:19;5.00;;;2.90;;
59872;SDS011;50750;51.636;4.948;2023-09-30T14:55:45;6.40;;;3.30;;
59872;SDS011;50750;51.636;4.948;2023-09-30T14:58:11;7.00;;;3.10;;
59872;SDS011;50750;51.636;4.948;2023-09-30T15:00:36;6.40;;;3.30;;
59872;SDS011;50750;51.636;4.948;2023-09-30T15:03:03;5.00;;;2.70;;
59872;SDS011;50750;51.636;4.948;2023-09-30T15:05:31;5.30;;;3.30;;
59872;SDS011;50750;51.636;4.948;2023-09-30T15:07:58;4.80;;;2.70;;
59872;SDS011;50750;51.636;4.948;2023-09-30T15:10:27;6.30;;;3.50;;
59872;SDS011;50750;51.636;4.948;2023-09-30T15:12:53;6.20;;;3.10;;
59872;SDS011;50750;51.636;4.948;2023-09-30T15:15:19;5.70;;;3.20;;
59872;SDS011;50750;51.636;4.948;2023-09-30T15:17:45;6.00;;;3.00;;
59872;SDS011;50750;51.636;4.948;2023-09-30T15:20:11;6.70;;;2.90;;
59872;SDS011;50750;51.636;4.948;2023-09-30T15:22:37;6.30;;;2.80;;
59872;SDS011;50750;51.636;4.948;2023-09-30T15:25:03;4.70;;;2.80;;
59872;SDS011;50750;51.636;4.948;2023-09-30T15:27:30;5.90;;;2.90;;
59872;SDS011;50750;51.636;4.948;2023-09-30T15:29:58;6.00;;;3.10;;
59872;SDS011;50750;51.636;4.948;2023-09-30T15:32:24;5.80;;;2.80;;
59872;SDS011;50750;51.636;4.948;2023-09-30T15:34:50;6.90;;;2.90;;
59872;SDS011;50750;51.636;4.948;2023-09-30T15:37:16;6.80;;;3.00;;
59872;SDS011;50750;51.636;4.948;2023-09-30T15:39:42;6.40;;;3.00;;
59872;SDS011;50750;51.636;4.948;2023-09-30T15:42:08;7.70;;;3.00;;